Alexandria, Esler Airfield (KESF)

NameEsler Airfield
CityAlexandria
CountryUnited States
ICAOKESF
IATAESF
Altitude34 m
CoordinatesGoogle Map
Live Air TrafficLiveATC.net
METARKESF 201153Z AUTO VRB03KT 10SM OVC013 19/19 A3008 RMK AO2 RAB33E52 SLP183 P0000 60000 T01940189 10206 20194 53009
2018-10-20 11:53:00 Wind: North (0°) 1.54 m/s - Visibility: 16093.4 m - Temperature: 19 °C - Dew point: 19 °C - Humidity: 100% - Pressure: 1018.63 hPa

Sorry, no flights used the airport in this database.